sensor_id;sensor_type;location;lat;lon;timestamp;P1;durP1;ratioP1;P2;durP2;ratioP2
46563;SDS011;32291;52.010;4.446;2023-04-08T00:00:51;26.35;;;15.10;;
46563;SDS011;32291;52.010;4.446;2023-04-08T00:01:53;21.90;;;15.50;;
46563;SDS011;32291;52.010;4.446;2023-04-08T00:02:55;26.50;;;15.68;;
46563;SDS011;32291;52.010;4.446;2023-04-08T00:03:57;22.42;;;16.17;;
46563;SDS011;32291;52.010;4.446;2023-04-08T00:04:58;24.00;;;16.60;;
46563;SDS011;32291;52.010;4.446;2023-04-08T00:06:00;25.10;;;16.80;;
46563;SDS011;32291;52.010;4.446;2023-04-08T00:07:03;26.17;;;16.73;;
46563;SDS011;32291;52.010;4.446;2023-04-08T00:08:04;26.88;;;16.63;;
46563;SDS011;32291;52.010;4.446;2023-04-08T00:09:07;21.00;;;16.75;;
46563;SDS011;32291;52.010;4.446;2023-04-08T00:10:09;22.17;;;17.17;;
46563;SDS011;32291;52.010;4.446;2023-04-08T00:11:11;25.50;;;18.38;;
46563;SDS011;32291;52.010;4.446;2023-04-08T00:12:12;27.15;;;17.52;;
46563;SDS011;32291;52.010;4.446;2023-04-08T00:13:14;23.75;;;18.27;;
46563;SDS011;32291;52.010;4.446;2023-04-08T00:14:18;25.73;;;18.63;;
46563;SDS011;32291;52.010;4.446;2023-04-08T00:15:20;23.67;;;17.83;;
46563;SDS011;32291;52.010;4.446;2023-04-08T00:16:22;25.23;;;19.42;;
46563;SDS011;32291;52.010;4.446;2023-04-08T00:17:24;30.38;;;20.88;;
46563;SDS011;32291;52.010;4.446;2023-04-08T00:18:27;30.70;;;19.92;;
46563;SDS011;32291;52.010;4.446;2023-04-08T00:19:29;24.42;;;19.33;;
46563;SDS011;32291;52.010;4.446;2023-04-08T00:20:31;28.02;;;20.40;;
46563;SDS011;32291;52.010;4.446;2023-04-08T00:21:33;28.67;;;20.42;;
46563;SDS011;32291;52.010;4.446;2023-04-08T00:22:35;24.77;;;19.15;;
46563;SDS011;32291;52.010;4.446;2023-04-08T00:23:37;28.95;;;20.13;;
46563;SDS011;32291;52.010;4.446;2023-04-08T00:24:39;26.17;;;19.65;;
46563;SDS011;32291;52.010;4.446;2023-04-08T00:25:41;26.98;;;20.58;;
46563;SDS011;32291;52.010;4.446;2023-04-08T00:26:43;31.25;;;21.35;;
46563;SDS011;32291;52.010;4.446;2023-04-08T00:27:45;26.73;;;20.15;;
46563;SDS011;32291;52.010;4.446;2023-04-08T00:28:47;25.13;;;20.75;;
46563;SDS011;32291;52.010;4.446;2023-04-08T00:29:49;26.92;;;19.83;;
46563;SDS011;32291;52.010;4.446;2023-04-08T00:30:51;30.45;;;20.60;;
46563;SDS011;32291;52.010;4.446;2023-04-08T00:31:54;28.00;;;20.55;;
46563;SDS011;32291;52.010;4.446;2023-04-08T00:32:56;28.42;;;20.50;;
46563;SDS011;32291;52.010;4.446;2023-04-08T00:33:57;25.20;;;20.77;;
46563;SDS011;32291;52.010;4.446;2023-04-08T00:34:59;27.67;;;21.17;;
46563;SDS011;32291;52.010;4.446;2023-04-08T00:36:02;28.15;;;20.83;;
46563;SDS011;32291;52.010;4.446;2023-04-08T00:37:04;28.38;;;19.98;;
46563;SDS011;32291;52.010;4.446;2023-04-08T00:38:06;30.42;;;20.90;;
46563;SDS011;32291;52.010;4.446;2023-04-08T00:39:08;24.77;;;21.08;;
46563;SDS011;32291;52.010;4.446;2023-04-08T00:40:10;28.52;;;20.90;;
46563;SDS011;32291;52.010;4.446;2023-04-08T00:41:12;29.40;;;22.30;;
46563;SDS011;32291;52.010;4.446;2023-04-08T00:42:14;31.00;;;22.38;;
46563;SDS011;32291;52.010;4.446;2023-04-08T00:43:17;29.67;;;22.45;;
46563;SDS011;32291;52.010;4.446;2023-04-08T00:44:21;27.70;;;20.30;;
46563;SDS011;32291;52.010;4.446;2023-04-08T00:45:23;27.55;;;21.48;;
46563;SDS011;32291;52.010;4.446;2023-04-08T00:46:24;30.33;;;22.05;;
46563;SDS011;32291;52.010;4.446;2023-04-08T00:47:26;26.83;;;21.15;;
46563;SDS011;32291;52.010;4.446;2023-04-08T00:48:28;29.35;;;22.70;;
46563;SDS011;32291;52.010;4.446;2023-04-08T00:49:31;30.60;;;22.83;;
46563;SDS011;32291;52.010;4.446;2023-04-08T00:50:33;26.35;;;21.40;;
46563;SDS011;32291;52.010;4.446;2023-04-08T00:51:35;28.80;;;22.30;;
46563;SDS011;32291;52.010;4.446;2023-04-08T00:52:37;32.00;;;21.75;;
46563;SDS011;32291;52.010;4.446;2023-04-08T00:53:39;25.55;;;21.85;;
46563;SDS011;32291;52.010;4.446;2023-04-08T00:54:41;30.25;;;22.75;;
46563;SDS011;32291;52.010;4.446;2023-04-08T00:55:42;30.55;;;24.27;;
46563;SDS011;32291;52.010;4.446;2023-04-08T00:56:44;27.98;;;21.83;;
46563;SDS011;32291;52.010;4.446;2023-04-08T00:57:46;33.42;;;24.13;;
46563;SDS011;32291;52.010;4.446;2023-04-08T00:58:49;31.98;;;23.42;;
46563;SDS011;32291;52.010;4.446;2023-04-08T00:59:55;28.85;;;22.77;;
46563;SDS011;32291;52.010;4.446;2023-04-08T01:01:02;34.50;;;23.45;;
46563;SDS011;32291;52.010;4.446;2023-04-08T01:02:35;33.22;;;24.42;;
46563;SDS011;32291;52.010;4.446;2023-04-08T01:05:41;33.58;;;22.85;;
46563;SDS011;32291;52.010;4.446;2023-04-08T01:07:17;31.77;;;22.88;;
46563;SDS011;32291;52.010;4.446;2023-04-08T01:08:28;35.30;;;24.35;;
46563;SDS011;32291;52.010;4.446;2023-04-08T01:09:34;34.10;;;25.15;;
46563;SDS011;32291;52.010;4.446;2023-04-08T01:10:40;33.85;;;24.95;;
46563;SDS011;32291;52.010;4.446;2023-04-08T01:11:48;35.15;;;26.27;;
46563;SDS011;32291;52.010;4.446;2023-04-08T01:12:55;35.42;;;26.85;;
46563;SDS011;32291;52.010;4.446;2023-04-08T01:14:02;39.67;;;27.75;;
46563;SDS011;32291;52.010;4.446;2023-04-08T01:15:10;32.88;;;24.88;;
46563;SDS011;32291;52.010;4.446;2023-04-08T01:16:13;34.53;;;26.25;;
46563;SDS011;32291;52.010;4.446;2023-04-08T01:17:17;36.78;;;26.30;;
46563;SDS011;32291;52.010;4.446;2023-04-08T01:18:22;35.60;;;26.20;;
46563;SDS011;32291;52.010;4.446;2023-04-08T01:19:29;37.67;;;27.33;;
46563;SDS011;32291;52.010;4.446;2023-04-08T01:20:35;37.63;;;26.90;;
46563;SDS011;32291;52.010;4.446;2023-04-08T01:21:39;35.78;;;25.90;;
46563;SDS011;32291;52.010;4.446;2023-04-08T01:22:57;40.38;;;27.75;;
46563;SDS011;32291;52.010;4.446;2023-04-08T01:24:38;33.08;;;25.08;;
46563;SDS011;32291;52.010;4.446;2023-04-08T01:25:48;38.22;;;27.58;;
46563;SDS011;32291;52.010;4.446;2023-04-08T01:26:54;33.72;;;25.13;;
46563;SDS011;32291;52.010;4.446;2023-04-08T01:27:59;38.47;;;27.02;;
46563;SDS011;32291;52.010;4.446;2023-04-08T01:29:16;37.90;;;25.48;;
46563;SDS011;32291;52.010;4.446;2023-04-08T01:30:19;37.90;;;27.17;;
46563;SDS011;32291;52.010;4.446;2023-04-08T01:31:23;37.13;;;26.70;;
46563;SDS011;32291;52.010;4.446;2023-04-08T01:32:26;33.75;;;26.00;;
46563;SDS011;32291;52.010;4.446;2023-04-08T01:33:30;39.92;;;27.13;;
46563;SDS011;32291;52.010;4.446;2023-04-08T01:34:34;35.92;;;26.80;;
46563;SDS011;32291;52.010;4.446;2023-04-08T01:35:38;38.67;;;26.77;;
46563;SDS011;32291;52.010;4.446;2023-04-08T01:36:40;39.65;;;28.02;;
46563;SDS011;32291;52.010;4.446;2023-04-08T01:37:45;36.95;;;26.92;;
46563;SDS011;32291;52.010;4.446;2023-04-08T01:38:51;33.28;;;24.08;;
46563;SDS011;32291;52.010;4.446;2023-04-08T01:39:54;35.53;;;26.67;;
46563;SDS011;32291;52.010;4.446;2023-04-08T01:40:57;37.70;;;28.15;;
46563;SDS011;32291;52.010;4.446;2023-04-08T01:41:59;34.53;;;26.10;;
46563;SDS011;32291;52.010;4.446;2023-04-08T01:43:03;37.50;;;27.40;;
46563;SDS011;32291;52.010;4.446;2023-04-08T01:44:08;35.83;;;26.95;;
46563;SDS011;32291;52.010;4.446;2023-04-08T01:45:13;37.95;;;26.85;;
46563;SDS011;32291;52.010;4.446;2023-04-08T01:46:17;37.92;;;28.55;;
46563;SDS011;32291;52.010;4.446;2023-04-08T01:47:21;37.25;;;28.27;;
46563;SDS011;32291;52.010;4.446;2023-04-08T01:48:24;37.40;;;27.02;;
46563;SDS011;32291;52.010;4.446;2023-04-08T01:49:27;38.38;;;27.27;;
46563;SDS011;32291;52.010;4.446;2023-04-08T01:50:30;37.00;;;26.77;;
46563;SDS011;32291;52.010;4.446;2023-04-08T01:51:35;37.97;;;27.70;;
46563;SDS011;32291;52.010;4.446;2023-04-08T01:52:39;38.55;;;27.90;;
46563;SDS011;32291;52.010;4.446;2023-04-08T01:53:42;37.80;;;28.60;;
46563;SDS011;32291;52.010;4.446;2023-04-08T01:54:44;36.88;;;26.85;;
46563;SDS011;32291;52.010;4.446;2023-04-08T01:55:48;37.38;;;27.58;;
46563;SDS011;32291;52.010;4.446;2023-04-08T01:56:57;37.47;;;26.35;;
46563;SDS011;32291;52.010;4.446;2023-04-08T01:58:01;33.78;;;26.20;;
46563;SDS011;32291;52.010;4.446;2023-04-08T01:59:09;34.65;;;25.88;;
46563;SDS011;32291;52.010;4.446;2023-04-08T02:00:17;36.17;;;26.52;;
46563;SDS011;32291;52.010;4.446;2023-04-08T02:01:26;35.10;;;25.52;;
46563;SDS011;32291;52.010;4.446;2023-04-08T02:02:29;41.22;;;27.83;;
46563;SDS011;32291;52.010;4.446;2023-04-08T02:03:35;36.83;;;26.80;;
46563;SDS011;32291;52.010;4.446;2023-04-08T02:04:38;36.05;;;27.52;;
46563;SDS011;32291;52.010;4.446;2023-04-08T02:05:40;38.90;;;26.77;;
46563;SDS011;32291;52.010;4.446;2023-04-08T02:06:41;39.70;;;28.05;;
46563;SDS011;32291;52.010;4.446;2023-04-08T02:07:45;39.10;;;27.67;;
46563;SDS011;32291;52.010;4.446;2023-04-08T02:08:50;39.30;;;27.17;;
46563;SDS011;32291;52.010;4.446;2023-04-08T02:09:53;37.22;;;27.50;;
46563;SDS011;32291;52.010;4.446;2023-04-08T02:10:57;41.97;;;28.95;;
46563;SDS011;32291;52.010;4.446;2023-04-08T02:11:58;37.33;;;27.58;;
46563;SDS011;32291;52.010;4.446;2023-04-08T02:13:01;39.95;;;28.33;;
46563;SDS011;32291;52.010;4.446;2023-04-08T02:14:03;34.67;;;26.50;;
46563;SDS011;32291;52.010;4.446;2023-04-08T02:15:05;38.15;;;28.60;;
46563;SDS011;32291;52.010;4.446;2023-04-08T02:16:15;39.15;;;27.50;;
46563;SDS011;32291;52.010;4.446;2023-04-08T02:17:57;46.95;;;29.25;;
46563;SDS011;32291;52.010;4.446;2023-04-08T02:19:10;43.47;;;28.33;;
46563;SDS011;32291;52.010;4.446;2023-04-08T02:20:36;45.38;;;29.08;;
46563;SDS011;32291;52.010;4.446;2023-04-08T02:21:47;42.83;;;28.60;;
46563;SDS011;32291;52.010;4.446;2023-04-08T02:24:04;42.28;;;28.48;;
46563;SDS011;32291;52.010;4.446;2023-04-08T02:25:12;41.70;;;28.95;;
46563;SDS011;32291;52.010;4.446;2023-04-08T02:26:16;46.95;;;29.92;;
46563;SDS011;32291;52.010;4.446;2023-04-08T02:27:19;43.28;;;29.65;;
46563;SDS011;32291;52.010;4.446;2023-04-08T02:28:25;44.70;;;28.95;;
46563;SDS011;32291;52.010;4.446;2023-04-08T02:29:30;44.97;;;31.10;;
46563;SDS011;32291;52.010;4.446;2023-04-08T02:30:36;50.45;;;31.40;;
46563;SDS011;32291;52.010;4.446;2023-04-08T02:31:43;50.38;;;31.83;;
46563;SDS011;32291;52.010;4.446;2023-04-08T02:32:48;45.75;;;32.05;;
46563;SDS011;32291;52.010;4.446;2023-04-08T02:33:51;54.47;;;32.00;;
46563;SDS011;32291;52.010;4.446;2023-04-08T02:34:54;49.83;;;32.80;;
46563;SDS011;32291;52.010;4.446;2023-04-08T02:35:59;47.30;;;30.95;;
46563;SDS011;32291;52.010;4.446;2023-04-08T02:37:04;49.45;;;30.90;;
46563;SDS011;32291;52.010;4.446;2023-04-08T02:38:06;47.33;;;30.25;;
46563;SDS011;32291;52.010;4.446;2023-04-08T02:39:09;49.13;;;30.85;;
46563;SDS011;32291;52.010;4.446;2023-04-08T02:41:43;48.00;;;31.25;;
46563;SDS011;32291;52.010;4.446;2023-04-08T02:42:44;51.05;;;31.23;;
46563;SDS011;32291;52.010;4.446;2023-04-08T02:43:46;44.90;;;30.92;;
46563;SDS011;32291;52.010;4.446;2023-04-08T02:44:48;46.33;;;29.27;;
46563;SDS011;32291;52.010;4.446;2023-04-08T02:45:49;49.53;;;31.30;;
46563;SDS011;32291;52.010;4.446;2023-04-08T02:46:51;51.15;;;30.77;;
46563;SDS011;32291;52.010;4.446;2023-04-08T02:47:52;44.70;;;29.83;;
46563;SDS011;32291;52.010;4.446;2023-04-08T02:48:54;48.08;;;30.15;;
46563;SDS011;32291;52.010;4.446;2023-04-08T02:49:56;47.25;;;30.42;;
46563;SDS011;32291;52.010;4.446;2023-04-08T02:50:58;47.85;;;31.65;;
46563;SDS011;32291;52.010;4.446;2023-04-08T02:51:59;51.10;;;31.65;;
46563;SDS011;32291;52.010;4.446;2023-04-08T02:53:01;51.33;;;31.90;;
46563;SDS011;32291;52.010;4.446;2023-04-08T02:54:03;49.78;;;29.70;;
46563;SDS011;32291;52.010;4.446;2023-04-08T02:55:05;49.05;;;30.08;;
46563;SDS011;32291;52.010;4.446;2023-04-08T02:56:09;46.15;;;30.63;;
46563;SDS011;32291;52.010;4.446;2023-04-08T02:57:11;48.65;;;29.80;;
46563;SDS011;32291;52.010;4.446;2023-04-08T02:58:13;51.65;;;33.00;;
46563;SDS011;32291;52.010;4.446;2023-04-08T02:59:15;48.30;;;31.25;;
46563;SDS011;32291;52.010;4.446;2023-04-08T03:00:17;46.10;;;31.08;;
46563;SDS011;32291;52.010;4.446;2023-04-08T03:01:18;49.63;;;30.98;;
46563;SDS011;32291;52.010;4.446;2023-04-08T03:02:20;47.67;;;30.08;;
46563;SDS011;32291;52.010;4.446;2023-04-08T03:03:22;51.53;;;31.40;;
46563;SDS011;32291;52.010;4.446;2023-04-08T03:04:31;45.63;;;29.55;;
46563;SDS011;32291;52.010;4.446;2023-04-08T03:05:33;47.55;;;29.80;;
46563;SDS011;32291;52.010;4.446;2023-04-08T03:06:34;44.15;;;30.05;;
46563;SDS011;32291;52.010;4.446;2023-04-08T03:07:36;44.97;;;30.08;;
46563;SDS011;32291;52.010;4.446;2023-04-08T03:08:38;43.88;;;28.73;;
46563;SDS011;32291;52.010;4.446;2023-04-08T03:09:40;46.40;;;30.38;;
46563;SDS011;32291;52.010;4.446;2023-04-08T03:10:42;46.47;;;29.48;;
46563;SDS011;32291;52.010;4.446;2023-04-08T03:11:44;42.88;;;28.48;;
46563;SDS011;32291;52.010;4.446;2023-04-08T03:12:52;42.47;;;28.30;;
46563;SDS011;32291;52.010;4.446;2023-04-08T03:13:54;43.28;;;29.13;;
46563;SDS011;32291;52.010;4.446;2023-04-08T03:14:55;43.47;;;28.73;;
46563;SDS011;32291;52.010;4.446;2023-04-08T03:15:57;42.05;;;28.77;;
46563;SDS011;32291;52.010;4.446;2023-04-08T03:16:59;44.63;;;28.85;;
46563;SDS011;32291;52.010;4.446;2023-04-08T03:18:01;45.30;;;28.67;;
46563;SDS011;32291;52.010;4.446;2023-04-08T03:19:03;46.60;;;30.30;;
46563;SDS011;32291;52.010;4.446;2023-04-08T03:20:05;51.50;;;30.58;;
46563;SDS011;32291;52.010;4.446;2023-04-08T03:21:08;52.78;;;32.70;;
46563;SDS011;32291;52.010;4.446;2023-04-08T03:22:12;44.97;;;30.50;;
46563;SDS011;32291;52.010;4.446;2023-04-08T03:23:14;48.03;;;30.50;;
46563;SDS011;32291;52.010;4.446;2023-04-08T03:24:16;44.97;;;29.83;;
46563;SDS011;32291;52.010;4.446;2023-04-08T03:25:18;40.95;;;27.00;;
46563;SDS011;32291;52.010;4.446;2023-04-08T03:26:19;45.40;;;28.50;;
46563;SDS011;32291;52.010;4.446;2023-04-08T03:27:22;45.78;;;29.77;;
46563;SDS011;32291;52.010;4.446;2023-04-08T03:28:24;47.95;;;30.73;;
46563;SDS011;32291;52.010;4.446;2023-04-08T03:29:26;46.17;;;29.20;;
46563;SDS011;32291;52.010;4.446;2023-04-08T03:30:27;47.83;;;29.52;;
46563;SDS011;32291;52.010;4.446;2023-04-08T03:31:29;44.13;;;29.77;;
46563;SDS011;32291;52.010;4.446;2023-04-08T03:32:31;43.15;;;27.95;;
46563;SDS011;32291;52.010;4.446;2023-04-08T03:33:33;43.72;;;27.63;;
46563;SDS011;32291;52.010;4.446;2023-04-08T03:34:35;46.75;;;29.52;;
46563;SDS011;32291;52.010;4.446;2023-04-08T03:35:37;44.17;;;29.00;;
46563;SDS011;32291;52.010;4.446;2023-04-08T03:36:39;48.95;;;31.65;;
46563;SDS011;32291;52.010;4.446;2023-04-08T03:37:41;45.47;;;29.08;;
46563;SDS011;32291;52.010;4.446;2023-04-08T03:38:43;43.30;;;28.73;;
46563;SDS011;32291;52.010;4.446;2023-04-08T03:39:45;48.20;;;30.25;;
46563;SDS011;32291;52.010;4.446;2023-04-08T03:40:47;53.90;;;31.45;;
46563;SDS011;32291;52.010;4.446;2023-04-08T03:41:49;47.70;;;31.02;;
46563;SDS011;32291;52.010;4.446;2023-04-08T03:42:51;48.08;;;30.77;;
46563;SDS011;32291;52.010;4.446;2023-04-08T03:43:53;47.55;;;30.00;;
46563;SDS011;32291;52.010;4.446;2023-04-08T03:44:54;40.47;;;27.95;;
46563;SDS011;32291;52.010;4.446;2023-04-08T03:45:57;44.83;;;28.38;;
46563;SDS011;32291;52.010;4.446;2023-04-08T03:46:59;49.28;;;30.38;;
46563;SDS011;32291;52.010;4.446;2023-04-08T03:48:00;41.83;;;28.88;;
46563;SDS011;32291;52.010;4.446;2023-04-08T03:49:02;46.88;;;31.50;;
46563;SDS011;32291;52.010;4.446;2023-04-08T03:50:04;41.95;;;28.48;;
46563;SDS011;32291;52.010;4.446;2023-04-08T03:51:07;44.70;;;29.10;;
46563;SDS011;32291;52.010;4.446;2023-04-08T03:52:08;46.45;;;29.02;;
46563;SDS011;32291;52.010;4.446;2023-04-08T03:53:10;45.03;;;28.55;;
46563;SDS011;32291;52.010;4.446;2023-04-08T03:54:12;45.17;;;30.08;;
46563;SDS011;32291;52.010;4.446;2023-04-08T03:55:14;45.22;;;29.20;;
46563;SDS011;32291;52.010;4.446;2023-04-08T03:56:15;48.97;;;30.40;;
46563;SDS011;32291;52.010;4.446;2023-04-08T03:57:17;40.85;;;27.25;;
46563;SDS011;32291;52.010;4.446;2023-04-08T03:58:19;44.88;;;28.98;;
46563;SDS011;32291;52.010;4.446;2023-04-08T03:59:21;46.70;;;30.33;;
46563;SDS011;32291;52.010;4.446;2023-04-08T04:00:23;46.03;;;28.90;;
46563;SDS011;32291;52.010;4.446;2023-04-08T04:01:25;43.75;;;28.35;;
46563;SDS011;32291;52.010;4.446;2023-04-08T04:02:27;45.08;;;29.23;;
46563;SDS011;32291;52.010;4.446;2023-04-08T04:03:28;46.85;;;29.23;;
46563;SDS011;32291;52.010;4.446;2023-04-08T04:04:30;51.38;;;30.85;;
46563;SDS011;32291;52.010;4.446;2023-04-08T04:05:31;48.65;;;30.40;;
46563;SDS011;32291;52.010;4.446;2023-04-08T04:06:33;42.97;;;29.50;;
46563;SDS011;32291;52.010;4.446;2023-04-08T04:07:35;46.20;;;29.23;;
46563;SDS011;32291;52.010;4.446;2023-04-08T04:08:37;47.15;;;30.40;;
46563;SDS011;32291;52.010;4.446;2023-04-08T04:09:39;43.97;;;28.85;;
46563;SDS011;32291;52.010;4.446;2023-04-08T04:10:40;47.35;;;29.63;;
46563;SDS011;32291;52.010;4.446;2023-04-08T04:11:42;47.05;;;28.98;;
46563;SDS011;32291;52.010;4.446;2023-04-08T04:12:43;44.53;;;29.95;;
46563;SDS011;32291;52.010;4.446;2023-04-08T04:13:46;47.78;;;30.05;;
46563;SDS011;32291;52.010;4.446;2023-04-08T04:14:48;43.92;;;29.42;;
46563;SDS011;32291;52.010;4.446;2023-04-08T04:15:50;45.90;;;29.55;;
46563;SDS011;32291;52.010;4.446;2023-04-08T04:16:51;48.20;;;30.33;;
46563;SDS011;32291;52.010;4.446;2023-04-08T04:17:53;49.22;;;29.58;;
46563;SDS011;32291;52.010;4.446;2023-04-08T04:18:55;41.83;;;28.08;;
46563;SDS011;32291;52.010;4.446;2023-04-08T04:19:57;49.58;;;31.00;;
46563;SDS011;32291;52.010;4.446;2023-04-08T04:20:59;44.78;;;28.40;;
46563;SDS011;32291;52.010;4.446;2023-04-08T04:22:01;49.90;;;30.30;;
46563;SDS011;32291;52.010;4.446;2023-04-08T04:23:02;56.58;;;32.70;;
46563;SDS011;32291;52.010;4.446;2023-04-08T04:24:04;52.53;;;31.40;;
46563;SDS011;32291;52.010;4.446;2023-04-08T04:25:06;47.20;;;29.98;;
46563;SDS011;32291;52.010;4.446;2023-04-08T04:26:08;43.25;;;29.88;;
46563;SDS011;32291;52.010;4.446;2023-04-08T04:27:11;44.80;;;29.42;;
46563;SDS011;32291;52.010;4.446;2023-04-08T04:28:13;51.83;;;29.50;;
46563;SDS011;32291;52.010;4.446;2023-04-08T04:29:16;52.22;;;29.83;;
46563;SDS011;32291;52.010;4.446;2023-04-08T04:30:18;41.72;;;27.92;;
46563;SDS011;32291;52.010;4.446;2023-04-08T04:31:20;45.42;;;28.67;;
46563;SDS011;32291;52.010;4.446;2023-04-08T04:32:27;44.00;;;28.73;;
46563;SDS011;32291;52.010;4.446;2023-04-08T04:33:29;50.88;;;30.15;;
46563;SDS011;32291;52.010;4.446;2023-04-08T04:34:31;48.50;;;29.67;;
46563;SDS011;32291;52.010;4.446;2023-04-08T04:35:33;47.83;;;29.95;;
46563;SDS011;32291;52.010;4.446;2023-04-08T04:36:34;43.83;;;28.77;;
46563;SDS011;32291;52.010;4.446;2023-04-08T04:37:36;48.25;;;31.13;;
46563;SDS011;32291;52.010;4.446;2023-04-08T04:38:38;49.60;;;31.80;;
46563;SDS011;32291;52.010;4.446;2023-04-08T04:39:40;45.83;;;30.83;;
46563;SDS011;32291;52.010;4.446;2023-04-08T04:40:42;44.50;;;30.45;;
46563;SDS011;32291;52.010;4.446;2023-04-08T04:41:44;48.15;;;31.73;;
46563;SDS011;32291;52.010;4.446;2023-04-08T04:42:47;42.78;;;30.95;;
46563;SDS011;32291;52.010;4.446;2023-04-08T04:43:49;46.53;;;32.33;;
46563;SDS011;32291;52.010;4.446;2023-04-08T04:44:50;45.33;;;31.77;;
46563;SDS011;32291;52.010;4.446;2023-04-08T04:45:54;42.72;;;30.33;;
46563;SDS011;32291;52.010;4.446;2023-04-08T04:46:57;44.88;;;30.77;;
46563;SDS011;32291;52.010;4.446;2023-04-08T04:47:58;43.70;;;30.90;;
46563;SDS011;32291;52.010;4.446;2023-04-08T04:49:00;44.20;;;30.85;;
46563;SDS011;32291;52.010;4.446;2023-04-08T04:50:02;41.78;;;30.42;;
46563;SDS011;32291;52.010;4.446;2023-04-08T04:51:04;44.15;;;30.90;;
46563;SDS011;32291;52.010;4.446;2023-04-08T04:52:07;40.28;;;30.08;;
46563;SDS011;32291;52.010;4.446;2023-04-08T04:53:08;41.60;;;29.92;;
46563;SDS011;32291;52.010;4.446;2023-04-08T04:54:10;40.42;;;31.83;;
46563;SDS011;32291;52.010;4.446;2023-04-08T04:55:12;43.83;;;29.98;;
46563;SDS011;32291;52.010;4.446;2023-04-08T04:56:15;44.83;;;32.28;;
46563;SDS011;32291;52.010;4.446;2023-04-08T04:57:16;44.40;;;32.05;;
46563;SDS011;32291;52.010;4.446;2023-04-08T04:58:18;40.85;;;30.55;;
46563;SDS011;32291;52.010;4.446;2023-04-08T04:59:20;41.25;;;29.98;;
46563;SDS011;32291;52.010;4.446;2023-04-08T05:00:22;40.00;;;28.23;;
46563;SDS011;32291;52.010;4.446;2023-04-08T05:01:23;44.40;;;31.67;;
46563;SDS011;32291;52.010;4.446;2023-04-08T05:02:26;47.35;;;32.75;;
46563;SDS011;32291;52.010;4.446;2023-04-08T05:03:27;43.75;;;30.98;;
46563;SDS011;32291;52.010;4.446;2023-04-08T05:04:29;43.35;;;30.83;;
46563;SDS011;32291;52.010;4.446;2023-04-08T05:05:31;44.42;;;31.38;;
46563;SDS011;32291;52.010;4.446;2023-04-08T05:06:33;43.60;;;30.83;;
46563;SDS011;32291;52.010;4.446;2023-04-08T05:07:35;41.22;;;30.00;;
46563;SDS011;32291;52.010;4.446;2023-04-08T05:08:38;43.28;;;32.00;;
46563;SDS011;32291;52.010;4.446;2023-04-08T05:09:41;40.30;;;30.40;;
46563;SDS011;32291;52.010;4.446;2023-04-08T05:10:43;41.95;;;29.17;;
46563;SDS011;32291;52.010;4.446;2023-04-08T05:11:44;43.58;;;32.00;;
46563;SDS011;32291;52.010;4.446;2023-04-08T05:12:47;42.17;;;30.67;;
46563;SDS011;32291;52.010;4.446;2023-04-08T05:13:48;41.72;;;29.33;;
46563;SDS011;32291;52.010;4.446;2023-04-08T05:14:50;41.80;;;31.00;;
46563;SDS011;32291;52.010;4.446;2023-04-08T05:15:51;37.65;;;28.85;;
46563;SDS011;32291;52.010;4.446;2023-04-08T05:16:53;38.13;;;30.08;;
46563;SDS011;32291;52.010;4.446;2023-04-08T05:17:55;40.55;;;31.02;;
46563;SDS011;32291;52.010;4.446;2023-04-08T05:18:56;39.40;;;30.02;;
46563;SDS011;32291;52.010;4.446;2023-04-08T05:19:58;44.42;;;31.05;;
46563;SDS011;32291;52.010;4.446;2023-04-08T05:21:01;43.40;;;31.27;;
46563;SDS011;32291;52.010;4.446;2023-04-08T05:22:03;42.65;;;31.83;;
46563;SDS011;32291;52.010;4.446;2023-04-08T05:23:05;44.42;;;32.20;;
46563;SDS011;32291;52.010;4.446;2023-04-08T05:24:07;46.40;;;33.65;;
46563;SDS011;32291;52.010;4.446;2023-04-08T05:25:09;45.50;;;32.55;;
46563;SDS011;32291;52.010;4.446;2023-04-08T05:26:11;45.38;;;31.40;;
46563;SDS011;32291;52.010;4.446;2023-04-08T05:27:13;46.97;;;32.88;;
46563;SDS011;32291;52.010;4.446;2023-04-08T05:28:15;43.78;;;30.50;;
46563;SDS011;32291;52.010;4.446;2023-04-08T05:29:16;44.05;;;31.20;;
46563;SDS011;32291;52.010;4.446;2023-04-08T05:30:19;46.65;;;33.35;;
46563;SDS011;32291;52.010;4.446;2023-04-08T05:31:20;45.15;;;31.98;;
46563;SDS011;32291;52.010;4.446;2023-04-08T05:32:22;46.28;;;32.65;;
46563;SDS011;32291;52.010;4.446;2023-04-08T05:33:23;51.47;;;33.47;;
46563;SDS011;32291;52.010;4.446;2023-04-08T05:34:26;44.38;;;31.85;;
46563;SDS011;32291;52.010;4.446;2023-04-08T05:35:28;43.13;;;32.97;;
46563;SDS011;32291;52.010;4.446;2023-04-08T05:36:30;46.35;;;33.22;;
46563;SDS011;32291;52.010;4.446;2023-04-08T05:37:32;46.40;;;32.33;;
46563;SDS011;32291;52.010;4.446;2023-04-08T05:38:34;51.50;;;33.47;;
46563;SDS011;32291;52.010;4.446;2023-04-08T05:39:35;52.42;;;34.17;;
46563;SDS011;32291;52.010;4.446;2023-04-08T05:40:37;50.78;;;33.40;;
46563;SDS011;32291;52.010;4.446;2023-04-08T05:41:39;48.15;;;32.90;;
46563;SDS011;32291;52.010;4.446;2023-04-08T05:42:41;51.65;;;32.63;;
46563;SDS011;32291;52.010;4.446;2023-04-08T05:43:42;49.17;;;32.53;;
46563;SDS011;32291;52.010;4.446;2023-04-08T05:44:45;52.70;;;34.75;;
46563;SDS011;32291;52.010;4.446;2023-04-08T05:45:48;47.35;;;31.27;;
46563;SDS011;32291;52.010;4.446;2023-04-08T05:46:51;51.38;;;34.58;;
46563;SDS011;32291;52.010;4.446;2023-04-08T05:47:53;48.05;;;32.67;;
46563;SDS011;32291;52.010;4.446;2023-04-08T05:48:54;46.97;;;31.33;;
46563;SDS011;32291;52.010;4.446;2023-04-08T05:49:56;47.65;;;32.85;;
46563;SDS011;32291;52.010;4.446;2023-04-08T05:50:57;47.78;;;31.92;;
46563;SDS011;32291;52.010;4.446;2023-04-08T05:51:59;49.08;;;32.45;;
46563;SDS011;32291;52.010;4.446;2023-04-08T05:53:02;53.55;;;33.30;;
46563;SDS011;32291;52.010;4.446;2023-04-08T05:54:04;50.85;;;30.67;;
46563;SDS011;32291;52.010;4.446;2023-04-08T05:55:06;52.72;;;31.95;;
46563;SDS011;32291;52.010;4.446;2023-04-08T05:56:09;54.65;;;31.38;;
46563;SDS011;32291;52.010;4.446;2023-04-08T05:57:11;45.80;;;30.98;;
46563;SDS011;32291;52.010;4.446;2023-04-08T05:58:12;49.63;;;31.20;;
46563;SDS011;32291;52.010;4.446;2023-04-08T05:59:14;45.03;;;30.70;;
46563;SDS011;32291;52.010;4.446;2023-04-08T06:00:15;49.03;;;30.83;;
46563;SDS011;32291;52.010;4.446;2023-04-08T06:01:17;68.75;;;29.27;;
46563;SDS011;32291;52.010;4.446;2023-04-08T06:02:19;64.72;;;29.15;;
46563;SDS011;32291;52.010;4.446;2023-04-08T06:03:21;51.05;;;29.35;;
46563;SDS011;32291;52.010;4.446;2023-04-08T06:04:23;54.42;;;28.65;;
46563;SDS011;32291;52.010;4.446;2023-04-08T06:05:24;41.45;;;27.58;;
46563;SDS011;32291;52.010;4.446;2023-04-08T06:06:26;49.05;;;28.88;;
46563;SDS011;32291;52.010;4.446;2023-04-08T06:07:29;48.88;;;28.83;;
46563;SDS011;32291;52.010;4.446;2023-04-08T06:08:32;42.83;;;26.30;;
46563;SDS011;32291;52.010;4.446;2023-04-08T06:09:34;42.05;;;26.55;;
46563;SDS011;32291;52.010;4.446;2023-04-08T06:10:37;51.83;;;26.95;;
46563;SDS011;32291;52.010;4.446;2023-04-08T06:11:38;44.90;;;26.48;;
46563;SDS011;32291;52.010;4.446;2023-04-08T06:12:40;38.38;;;25.95;;
46563;SDS011;32291;52.010;4.446;2023-04-08T06:13:42;59.88;;;27.05;;
46563;SDS011;32291;52.010;4.446;2023-04-08T06:14:43;49.35;;;27.35;;